createdAt,value
2022-08-20T00:04:49.139Z,23.97
2022-08-20T00:09:53.373Z,22.00
2022-08-20T00:14:56.324Z,25.85
2022-08-20T00:19:59.455Z,24.00
2022-08-20T00:25:04.859Z,22.73
2022-08-20T00:30:12.663Z,25.55
2022-08-20T00:35:16.994Z,25.77
2022-08-20T00:40:27.200Z,25.13
2022-08-20T00:45:33.034Z,25.23
2022-08-20T00:50:38.903Z,22.88
2022-08-20T00:55:43.111Z,23.87
2022-08-20T01:00:49.825Z,23.07
2022-08-20T01:05:53.691Z,23.35
2022-08-20T01:11:09.669Z,22.83
2022-08-20T01:16:20.637Z,23.83
2022-08-20T01:21:25.938Z,24.60
2022-08-20T01:26:33.307Z,22.75
2022-08-20T01:31:40.448Z,24.37
2022-08-20T01:36:50.423Z,25.58
2022-08-20T01:42:04.097Z,25.88
2022-08-20T01:47:15.167Z,20.80
2022-08-20T01:52:26.146Z,21.17
2022-08-20T01:57:30.329Z,27.77
2022-08-20T02:02:33.130Z,26.48
2022-08-20T02:07:36.431Z,25.53
2022-08-20T02:12:40.686Z,24.95
2022-08-20T02:17:44.054Z,25.58
2022-08-20T02:22:50.382Z,21.77
2022-08-20T02:27:56.269Z,23.92
2022-08-20T02:32:59.834Z,24.80
2022-08-20T02:38:03.051Z,24.07
2022-08-20T02:43:07.712Z,25.17
2022-08-20T02:48:11.886Z,24.27
2022-08-20T02:53:14.897Z,22.52
2022-08-20T02:58:19.869Z,26.83
2022-08-20T03:03:22.980Z,26.13
2022-08-20T03:08:27.261Z,26.45
2022-08-20T03:13:31.509Z,25.77
2022-08-20T03:18:38.008Z,24.77
2022-08-20T03:23:42.103Z,26.20
2022-08-20T03:28:46.252Z,25.53
2022-08-20T03:33:53.197Z,26.37
2022-08-20T03:38:56.868Z,25.58
2022-08-20T03:44:01.023Z,26.42
2022-08-20T03:49:04.369Z,26.87
2022-08-20T03:54:07.298Z,24.83
2022-08-20T03:59:11.561Z,25.63
2022-08-20T04:04:14.711Z,24.57
2022-08-20T04:09:17.552Z,24.77
2022-08-20T04:14:21.728Z,24.90
2022-08-20T04:19:24.531Z,24.97
2022-08-20T04:24:32.190Z,23.43
2022-08-20T04:29:37.627Z,23.95
2022-08-20T04:34:40.623Z,22.45
2022-08-20T04:39:43.423Z,20.47
2022-08-20T04:44:47.657Z,18.35
2022-08-20T04:49:50.935Z,19.95
2022-08-20T04:54:56.547Z,19.00
2022-08-20T05:00:01.590Z,18.65
2022-08-20T05:05:05.013Z,20.38
2022-08-20T05:10:09.800Z,18.37
2022-08-20T05:15:14.612Z,16.97
2022-08-20T05:20:19.207Z,14.98
2022-08-20T05:25:21.998Z,12.73
2022-08-20T05:30:26.406Z,12.27
2022-08-20T05:35:29.265Z,10.98
2022-08-20T05:40:32.145Z,10.48
2022-08-20T05:45:38.678Z,11.80
2022-08-20T05:50:43.070Z,11.30
2022-08-20T05:55:46.390Z,11.45
2022-08-20T06:00:51.483Z,10.97
2022-08-20T06:05:54.371Z,10.70
2022-08-20T06:10:57.801Z,11.15
2022-08-20T06:16:02.012Z,10.40
2022-08-20T06:21:09.678Z,8.37
2022-08-20T06:26:12.689Z,9.85
2022-08-20T06:31:16.850Z,8.60
2022-08-20T06:36:20.314Z,8.27
2022-08-20T06:47:47.989Z,8.30
2022-08-20T06:52:52.945Z,9.30
2022-08-20T06:58:00.418Z,7.67
2022-08-20T07:03:05.337Z,8.35
2022-08-20T07:08:09.598Z,8.48
2022-08-20T07:13:14.489Z,8.17
2022-08-20T07:18:28.032Z,8.75
2022-08-20T07:23:32.169Z,8.90
2022-08-20T07:28:35.438Z,8.40
2022-08-20T07:33:40.444Z,10.10
2022-08-20T07:38:46.644Z,10.15
2022-08-20T07:43:49.878Z,9.13
2022-08-20T07:48:54.026Z,10.13
2022-08-20T07:53:58.256Z,10.45
2022-08-20T07:59:02.272Z,10.98
2022-08-20T08:04:06.529Z,10.73
2022-08-20T08:09:14.141Z,10.77
2022-08-20T08:14:23.164Z,9.85
2022-08-20T08:19:34.277Z,12.40
2022-08-20T08:24:37.112Z,11.85
2022-08-20T08:29:39.976Z,11.25
2022-08-20T08:34:48.107Z,11.87
2022-08-20T08:39:51.079Z,11.90
2022-08-20T08:44:55.288Z,12.00
2022-08-20T08:49:59.688Z,11.48
2022-08-20T08:55:06.767Z,11.70
2022-08-20T09:00:14.333Z,11.32
2022-08-20T09:05:21.797Z,12.38
2022-08-20T09:10:24.839Z,10.27
2022-08-20T09:15:27.953Z,10.40
2022-08-20T09:20:32.262Z,10.32
2022-08-20T09:25:35.488Z,9.83
2022-08-20T09:30:38.300Z,10.00
2022-08-20T09:35:44.803Z,10.55
2022-08-20T09:40:47.729Z,10.45
2022-08-20T09:45:50.578Z,9.87
2022-08-20T09:50:54.831Z,10.65
2022-08-20T09:55:58.717Z,9.30
2022-08-20T10:01:05.222Z,10.27
2022-08-20T10:06:19.875Z,10.55
2022-08-20T10:11:22.711Z,9.70
2022-08-20T10:16:25.785Z,9.70
2022-08-20T10:21:32.544Z,7.47
2022-08-20T10:26:39.096Z,9.03
2022-08-20T10:31:42.060Z,8.75
2022-08-20T10:36:46.702Z,8.38
2022-08-20T10:41:49.490Z,8.83
2022-08-20T10:46:56.961Z,8.40
2022-08-20T10:52:01.414Z,8.07
2022-08-20T10:57:09.506Z,7.33
2022-08-20T11:02:13.231Z,6.67
2022-08-20T11:07:20.947Z,7.40
2022-08-20T11:12:24.413Z,7.40
2022-08-20T11:17:30.032Z,5.53
2022-08-20T11:22:34.317Z,6.00
2022-08-20T11:27:39.508Z,5.70
2022-08-20T11:32:42.516Z,4.63
2022-08-20T11:37:46.684Z,4.60
2022-08-20T11:43:13.247Z,5.55
2022-08-20T11:48:12.461Z,4.37
2022-08-20T11:53:17.532Z,4.00
2022-08-20T11:58:20.419Z,3.20
2022-08-20T12:03:23.413Z,3.13
2022-08-20T12:08:29.359Z,3.73
2022-08-20T12:13:47.997Z,3.20
2022-08-20T12:18:52.483Z,3.20
2022-08-20T12:23:56.751Z,3.83
2022-08-20T12:28:59.570Z,2.80
2022-08-20T12:34:02.361Z,3.30
2022-08-20T12:39:07.445Z,3.27
2022-08-20T12:44:13.458Z,3.00
2022-08-20T12:49:16.360Z,2.88
2022-08-20T12:54:20.526Z,3.05
2022-08-20T12:59:26.045Z,2.60
2022-08-20T13:04:28.987Z,2.70
2022-08-20T13:09:33.836Z,2.95
2022-08-20T13:14:37.059Z,2.27
2022-08-20T13:19:40.292Z,2.70
2022-08-20T13:24:44.555Z,2.80
2022-08-20T13:29:48.813Z,2.50
2022-08-20T13:34:52.199Z,2.47
2022-08-20T13:39:57.477Z,2.40
2022-08-20T13:45:00.346Z,2.00
2022-08-20T13:50:10.213Z,2.30
2022-08-20T13:55:17.100Z,2.10
2022-08-20T14:00:31.207Z,2.05
2022-08-20T14:05:35.372Z,2.03
2022-08-20T14:10:40.299Z,1.80
2022-08-20T14:15:46.382Z,2.10
2022-08-20T14:20:49.287Z,2.00
2022-08-20T14:25:53.504Z,2.20
2022-08-20T14:30:56.470Z,2.05
2022-08-20T14:35:59.252Z,2.10
2022-08-20T14:41:03.411Z,2.13
2022-08-20T14:46:06.418Z,2.05
2022-08-20T14:51:10.255Z,1.90
2022-08-20T14:56:15.605Z,2.27
2022-08-20T15:01:18.449Z,2.20
2022-08-20T15:06:22.186Z,2.00
2022-08-20T15:11:26.693Z,2.27
2022-08-20T15:16:34.872Z,2.20
2022-08-20T15:21:44.930Z,2.30
2022-08-20T15:26:49.721Z,2.42
2022-08-20T15:31:52.601Z,2.60
2022-08-20T15:36:57.697Z,2.75
2022-08-20T15:42:01.900Z,2.70
2022-08-20T15:47:20.872Z,2.70
2022-08-20T15:52:26.391Z,2.70
2022-08-20T15:57:45.207Z,3.05
2022-08-20T16:03:20.247Z,3.47
2022-08-20T16:08:52.270Z,3.33
2022-08-20T16:14:02.467Z,3.40
2022-08-20T16:19:12.509Z,2.97
2022-08-20T16:24:15.914Z,3.27
2022-08-20T16:29:24.787Z,3.88
2022-08-20T16:34:33.718Z,3.53
2022-08-20T16:39:47.611Z,3.57
2022-08-20T16:44:56.143Z,3.60
2022-08-20T16:50:01.902Z,3.50
2022-08-20T16:55:05.145Z,3.40
2022-08-20T17:00:13.952Z,3.20
2022-08-20T17:05:17.375Z,3.15
2022-08-20T17:10:26.726Z,3.10
2022-08-20T17:15:36.329Z,3.03
2022-08-20T17:20:45.439Z,3.22
2022-08-20T17:25:59.883Z,3.25
2022-08-20T17:31:04.193Z,3.63
2022-08-20T17:36:11.193Z,3.28
2022-08-20T17:41:19.308Z,3.20
2022-08-20T17:46:25.431Z,2.90
2022-08-20T17:51:32.818Z,2.73
2022-08-20T17:56:40.626Z,2.72
2022-08-20T18:01:44.931Z,2.58
2022-08-20T18:06:55.057Z,2.50
2022-08-20T18:12:04.316Z,2.28
2022-08-20T18:17:25.287Z,2.38
2022-08-20T18:22:32.537Z,2.33
2022-08-20T18:27:40.972Z,2.80
2022-08-20T18:32:47.907Z,2.45
2022-08-20T18:37:50.978Z,2.40
2022-08-20T18:42:53.972Z,2.30
2022-08-20T18:48:03.653Z,2.20
2022-08-20T18:53:16.720Z,2.60
2022-08-20T18:58:31.354Z,2.57
2022-08-20T19:03:45.319Z,2.70
2022-08-20T19:08:52.813Z,2.70
2022-08-20T19:14:14.919Z,2.90
2022-08-20T19:19:22.628Z,2.58
2022-08-20T19:24:28.367Z,2.80
2022-08-20T19:29:35.866Z,3.60
2022-08-20T19:34:40.045Z,3.00
2022-08-20T19:39:43.003Z,2.95
2022-08-20T19:44:51.403Z,2.40
2022-08-20T19:50:00.938Z,3.00
2022-08-20T19:55:04.385Z,2.50
2022-08-20T20:00:12.760Z,3.00
2022-08-20T20:05:18.162Z,2.90
2022-08-20T20:10:32.324Z,2.95
2022-08-20T20:15:36.103Z,3.45
2022-08-20T20:20:57.001Z,3.20
2022-08-20T20:26:04.268Z,3.10
2022-08-20T20:31:08.376Z,3.25
2022-08-20T20:36:15.781Z,3.05
2022-08-20T20:41:24.202Z,2.80
2022-08-20T20:46:28.785Z,2.90
2022-08-20T20:51:34.881Z,2.92
2022-08-20T20:56:43.980Z,2.60
2022-08-20T21:01:50.193Z,2.60
2022-08-20T21:06:56.905Z,2.53
2022-08-20T21:12:00.042Z,2.87
2022-08-20T21:17:05.458Z,2.63
2022-08-20T21:22:09.645Z,3.00
2022-08-20T21:27:13.738Z,3.00
2022-08-20T21:32:17.803Z,2.57
2022-08-20T21:37:21.974Z,2.75
2022-08-20T21:42:29.315Z,2.72
2022-08-20T21:47:32.637Z,2.60
2022-08-20T21:52:37.979Z,2.50
2022-08-20T21:57:49.036Z,2.50
2022-08-20T22:02:51.912Z,2.60
2022-08-20T22:07:56.080Z,2.67
2022-08-20T22:12:59.114Z,2.70
2022-08-20T22:18:01.911Z,2.70
2022-08-20T22:23:07.460Z,2.40
2022-08-20T22:28:10.875Z,2.40
2022-08-20T22:33:15.551Z,2.70
2022-08-20T22:38:20.555Z,2.53
2022-08-20T22:43:24.281Z,2.58
2022-08-20T22:48:28.731Z,2.50
2022-08-20T22:53:33.156Z,2.80
2022-08-20T22:58:37.173Z,2.60
2022-08-20T23:03:40.504Z,2.80
2022-08-20T23:08:45.490Z,2.53
2022-08-20T23:13:48.899Z,2.80
2022-08-20T23:18:51.713Z,2.42
2022-08-20T23:23:55.897Z,2.78
2022-08-20T23:28:58.763Z,2.80
2022-08-20T23:34:01.605Z,2.42
2022-08-20T23:39:07.274Z,2.50
2022-08-20T23:44:25.769Z,2.87
2022-08-20T23:49:31.603Z,2.90
2022-08-20T23:54:35.932Z,3.00
2022-08-20T23:59:38.808Z,3.50
